Time;durP1;ratioP1;P1;durP2;ratioP2;P2;SDS_P1;SDS_P2;PMS_P1;PMS_P2;Temp;Humidity;BMP_temperature;BMP_pressure;BME280_temperature;BME280_humidity;BME280_pressure;Samples;Min_cycle;Max_cycle;Signal;HPM_P1;HPM_P2
2024/03/14 06:03:13;;;;;;;94.60;47.30;;;;;;;4.64;90.36;97218.98;105378;1266;96619;-85
2024/03/14 06:05:40;;;;;;;96.00;50.00;;;;;;;4.67;90.44;97221.30;106659;1251;97939;-84
2024/03/14 06:08:06;;;;;;;97.50;52.10;;;;;;;4.71;90.47;97224.73;106817;1249;97714;-85
2024/03/14 06:10:32;;;;;;;99.30;52.00;;;;;;;4.77;90.42;97226.30;106813;1249;97814;-85
2024/03/14 06:12:59;;;;;;;107.50;53.80;;;;;;;4.80;90.45;97229.27;106805;1260;96572;-86
2024/03/14 06:15:28;;;;;;;93.70;50.60;;;;;;;4.84;90.45;97232.06;106657;1248;97033;-88
2024/03/14 06:17:54;;;;;;;95.40;51.80;;;;;;;4.85;90.34;97233.85;106795;1249;107738;-88
2024/03/14 06:20:22;;;;;;;90.00;47.80;;;;;;;4.84;90.18;97234.13;106841;1246;97148;-89
2024/03/14 06:22:48;;;;;;;101.20;50.90;;;;;;;4.81;90.16;97233.08;107104;1256;96645;-91
2024/03/14 06:25:15;;;;;;;98.30;48.00;;;;;;;4.82;90.03;97233.03;106935;1248;96622;-91
2024/03/14 06:27:42;;;;;;;95.00;47.70;;;;;;;4.81;89.96;97233.48;107081;1245;96591;-90
2024/03/14 06:30:09;;;;;;;96.80;48.30;;;;;;;4.80;89.83;97234.77;107287;1256;96831;-90
2024/03/14 06:32:36;;;;;;;94.00;46.70;;;;;;;4.85;90.05;97233.89;107164;1254;99202;-78
2024/03/14 06:35:05;;;;;;;91.60;46.60;;;;;;;4.87;89.96;97235.55;107295;1241;97690;-79
2024/03/14 06:37:31;;;;;;;86.90;44.80;;;;;;;4.87;90.08;97239.13;107276;1245;97821;-81
2024/03/14 06:39:57;;;;;;;92.80;48.00;;;;;;;4.90;90.04;97245.48;107273;1244;96612;-81
2024/03/14 06:42:23;;;;;;;87.70;45.20;;;;;;;4.91;89.88;97240.44;107262;1242;97507;-79
2024/03/14 06:44:50;;;;;;;93.00;47.70;;;;;;;4.93;89.83;97241.44;107328;1254;96673;-78
2024/03/14 06:47:18;;;;;;;78.40;43.00;;;;;;;4.94;89.67;97244.93;107455;1241;97041;-79
2024/03/14 06:49:44;;;;;;;84.60;43.00;;;;;;;4.95;89.63;97245.14;107486;1243;102125;-79
2024/03/14 06:52:12;;;;;;;80.60;44.30;;;;;;;4.98;89.74;97248.15;107350;1245;96657;-79
2024/03/14 06:54:39;;;;;;;77.00;42.80;;;;;;;4.96;89.63;97248.04;107257;1245;97151;-79
2024/03/14 06:57:09;;;;;;;80.30;42.50;;;;;;;4.99;89.64;97249.52;107216;1245;97149;-79
2024/03/14 06:59:37;;;;;;;79.30;42.60;;;;;;;5.03;89.67;97252.81;107273;1254;97203;-79
2024/03/14 07:02:05;;;;;;;79.70;44.30;;;;;;;5.07;89.70;97255.60;107319;1254;102095;-79
2024/03/14 07:04:33;;;;;;;76.00;42.60;;;;;;;5.12;89.66;97258.27;107250;1249;96587;-79
2024/03/14 07:07:01;;;;;;;78.80;42.90;;;;;;;5.17;89.57;97258.74;107225;1245;99932;-79
2024/03/14 07:09:30;;;;;;;74.30;42.40;;;;;;;5.20;89.62;97256.27;107246;1245;96818;-78
2024/03/14 07:11:59;;;;;;;79.40;43.70;;;;;;;5.21;89.65;97255.58;107320;1242;98017;-79
2024/03/14 07:14:26;;;;;;;76.60;43.60;;;;;;;5.22;89.60;97255.88;107309;1245;102294;-78
2024/03/14 07:16:54;;;;;;;76.40;43.00;;;;;;;5.22;89.41;97260.81;107274;1255;97838;-88
2024/03/14 07:19:21;;;;;;;72.10;41.90;;;;;;;5.22;89.23;97259.92;107142;1255;96574;-88
2024/03/14 07:21:49;;;;;;;74.70;43.30;;;;;;;5.25;89.25;97259.10;107100;1245;97121;-88
2024/03/14 07:24:21;;;;;;;82.50;43.40;;;;;;;5.30;89.31;97260.17;107199;1254;97003;-88
2024/03/14 07:26:48;;;;;;;83.10;44.00;;;;;;;5.36;89.33;97259.32;107240;1248;101180;-88
2024/03/14 07:29:14;;;;;;;84.90;44.00;;;;;;;5.38;89.18;97262.66;107201;1245;96625;-88
2024/03/14 07:31:43;;;;;;;85.70;44.70;;;;;;;5.44;89.14;97264.13;107019;1245;97134;-89
2024/03/14 07:34:10;;;;;;;76.80;42.30;;;;;;;5.49;89.04;97266.40;107144;1245;97500;-88
2024/03/14 07:36:38;;;;;;;74.40;41.40;;;;;;;5.51;88.82;97268.62;107150;1245;96649;-89
2024/03/14 07:39:06;;;;;;;74.40;41.70;;;;;;;5.52;88.60;97267.31;107143;1248;102244;-89
2024/03/14 07:41:32;;;;;;;71.80;40.50;;;;;;;5.51;88.48;97272.07;107245;1245;101593;-88
2024/03/14 07:43:59;;;;;;;72.10;41.70;;;;;;;5.50;88.32;97268.23;107360;1241;97467;-89
2024/03/14 07:46:26;;;;;;;76.00;42.00;;;;;;;5.52;88.36;97272.77;107343;1242;96659;-78
2024/03/14 07:48:53;;;;;;;74.90;41.90;;;;;;;5.56;88.38;97273.05;107561;1241;96949;-78
2024/03/14 07:51:20;;;;;;;76.80;41.00;;;;;;;5.61;88.69;97270.27;107494;1239;101355;-78
2024/03/14 07:53:47;;;;;;;81.30;44.70;;;;;;;5.67;88.90;97269.71;107463;1249;97505;-78
2024/03/14 07:56:14;;;;;;;77.70;43.80;;;;;;;5.73;88.88;97271.52;107570;1239;96626;-78
2024/03/14 07:58:42;;;;;;;74.00;41.80;;;;;;;5.76;88.91;97275.17;107538;1240;97492;-78
2024/03/14 08:01:19;;;;;;;69.30;41.00;;;;;;;5.80;88.65;97276.86;107765;1248;96648;-86
2024/03/14 08:03:47;;;;;;;66.30;40.50;;;;;;;5.86;88.56;97281.60;107515;1242;101614;-85
2024/03/14 08:06:16;;;;;;;71.80;42.30;;;;;;;5.90;88.45;97281.21;107510;1240;100008;-86
2024/03/14 08:08:43;;;;;;;76.50;43.00;;;;;;;5.93;88.25;97283.35;109431;1239;97317;-86
2024/03/14 08:11:11;;;;;;;70.80;41.40;;;;;;;5.94;87.88;97278.98;107522;1239;97116;-79
2024/03/14 08:13:39;;;;;;;72.30;40.10;;;;;;;5.95;87.99;97281.14;107793;1238;102200;-78
2024/03/14 08:16:14;;;;;;;67.40;38.10;;;;;;;5.98;87.66;97281.48;107806;1241;97044;-88
2024/03/14 08:18:44;;;;;;;74.10;41.40;;;;;;;6.00;87.61;97283.41;107411;1238;98987;-87
2024/03/14 08:21:12;;;;;;;74.60;41.20;;;;;;;6.05;87.58;97284.78;107369;1249;96603;-87
2024/03/14 08:23:41;;;;;;;70.60;40.70;;;;;;;6.11;87.57;97282.08;107362;1246;97169;-88
2024/03/14 08:26:12;;;;;;;69.90;40.90;;;;;;;6.19;87.62;97281.70;107405;1252;102135;-88
2024/03/14 08:28:41;;;;;;;75.10;41.40;;;;;;;6.25;87.58;97279.62;107390;1242;100273;-78
2024/03/14 08:31:14;;;;;;;69.70;40.60;;;;;;;6.32;87.49;97276.71;107449;1249;99886;-88
2024/03/14 08:33:45;;;;;;;71.70;41.00;;;;;;;6.36;87.41;97277.19;107353;1248;97141;-88
2024/03/14 08:36:16;;;;;;;75.30;43.20;;;;;;;6.42;87.27;97276.88;107401;1239;97087;-88
2024/03/14 08:38:42;;;;;;;72.10;41.90;;;;;;;6.48;87.16;97278.44;107417;1248;102082;-88
2024/03/14 08:41:09;;;;;;;73.30;42.30;;;;;;;6.53;87.27;97279.98;107365;1246;96515;-88
2024/03/14 08:43:35;;;;;;;67.30;41.10;;;;;;;6.60;87.24;97283.37;107395;1242;96588;-88
2024/03/14 08:46:02;;;;;;;65.60;40.90;;;;;;;6.63;87.01;97279.80;107413;1242;96558;-88
2024/03/14 08:48:28;;;;;;;68.90;40.60;;;;;;;6.60;86.47;97279.41;107334;1242;102272;-78
2024/03/14 08:50:55;;;;;;;70.10;40.20;;;;;;;6.60;86.27;97280.85;107509;1242;96715;-78
2024/03/14 08:53:22;;;;;;;70.40;39.90;;;;;;;6.60;86.28;97284.73;107505;1237;96564;-78
2024/03/14 08:55:54;;;;;;;70.00;41.20;;;;;;;6.66;86.44;97283.34;107436;1241;96803;-78
2024/03/14 08:58:21;;;;;;;68.70;41.00;;;;;;;6.71;86.45;97284.64;107482;1252;96567;-78
2024/03/14 09:00:48;;;;;;;70.80;41.60;;;;;;;6.73;86.34;97284.30;107543;1242;97477;-78
2024/03/14 09:03:15;;;;;;;65.80;40.90;;;;;;;6.73;86.43;97286.03;107467;1242;97803;-79
2024/03/14 09:05:42;;;;;;;64.90;39.50;;;;;;;6.77;86.51;97282.84;107475;1249;96587;-79
2024/03/14 09:08:08;;;;;;;68.90;41.30;;;;;;;6.79;86.35;97285.18;107452;1242;97315;-89
2024/03/14 09:10:35;;;;;;;68.10;39.80;;;;;;;6.82;86.37;97282.00;107408;1238;97492;-89
2024/03/14 09:13:02;;;;;;;68.30;40.20;;;;;;;6.85;86.17;97278.60;107361;1239;101245;-89
2024/03/14 09:15:29;;;;;;;64.70;38.80;;;;;;;6.89;85.78;97278.88;107385;1248;96514;-89
2024/03/14 09:17:55;;;;;;;68.30;39.60;;;;;;;6.91;85.64;97273.77;107335;1243;97804;-89
2024/03/14 09:20:21;;;;;;;68.20;41.80;;;;;;;6.97;85.58;97268.97;107378;1246;97809;-88
2024/03/14 09:22:53;;;;;;;70.70;41.10;;;;;;;7.03;85.50;97264.77;107423;1237;96553;-89
2024/03/14 09:25:21;;;;;;;72.30;41.60;;;;;;;7.05;85.23;97261.58;107318;1238;107679;-88
2024/03/14 09:27:48;;;;;;;65.10;39.10;;;;;;;7.05;84.95;97260.24;107255;1250;96572;-88
2024/03/14 09:30:15;;;;;;;73.70;41.90;;;;;;;7.05;84.96;97257.69;107284;1242;97096;-89
2024/03/14 09:32:42;;;;;;;73.20;41.80;;;;;;;7.13;85.41;97254.66;107344;1240;96886;-89
2024/03/14 09:35:11;;;;;;;70.40;42.10;;;;;;;7.25;85.54;97250.70;107341;1242;96559;-88
2024/03/14 09:37:38;;;;;;;75.90;43.30;;;;;;;7.35;85.53;97254.06;107368;1252;99771;-88
2024/03/14 09:40:13;;;;;;;72.70;41.70;;;;;;;7.43;85.15;97254.45;107388;1240;97116;-89
2024/03/14 09:42:41;;;;;;;69.80;40.80;;;;;;;7.49;84.81;97250.61;107341;1242;97509;-89
2024/03/14 09:45:12;;;;;;;65.00;39.90;;;;;;;7.60;84.78;97247.42;107429;1242;102064;-86
2024/03/14 09:47:39;;;;;;;61.70;39.10;;;;;;;7.70;84.41;97246.88;107362;1246;101250;-79
2024/03/14 09:50:09;;;;;;;66.30;40.40;;;;;;;7.70;83.83;97244.31;107500;1242;97113;-79
2024/03/14 09:52:36;;;;;;;63.70;40.60;;;;;;;7.72;83.53;97245.91;107515;1242;97798;-79
2024/03/14 09:55:03;;;;;;;65.40;39.60;;;;;;;7.75;83.66;97244.55;107452;1242;96562;-79
2024/03/14 09:57:30;;;;;;;64.20;39.90;;;;;;;7.85;83.67;97243.41;107506;1248;97483;-79
2024/03/14 09:59:57;;;;;;;64.60;40.00;;;;;;;7.92;83.21;97245.98;107468;1242;96584;-79
2024/03/14 10:02:26;;;;;;;65.80;38.70;;;;;;;7.99;83.41;97247.54;107460;1240;97184;-86
2024/03/14 10:04:52;;;;;;;64.90;39.80;;;;;;;8.10;83.76;97245.52;107388;1241;97546;-78
2024/03/14 10:07:19;;;;;;;63.20;39.40;;;;;;;8.18;83.93;97246.61;107518;1240;96569;-82
2024/03/14 10:09:45;;;;;;;60.80;38.30;;;;;;;8.21;83.51;97249.63;107475;1248;97164;-79
2024/03/14 10:12:14;;;;;;;65.20;40.80;;;;;;;8.21;83.19;97251.82;107555;1252;97977;-79
2024/03/14 10:14:41;;;;;;;57.80;35.60;;;;;;;8.21;83.06;97241.92;107551;1242;96990;-79
2024/03/14 10:17:08;;;;;;;61.70;37.70;;;;;;;8.19;82.69;97248.30;107460;1246;97855;-79
2024/03/14 10:19:35;;;;;;;63.50;38.10;;;;;;;8.16;82.25;97244.81;107494;1241;97108;-79
2024/03/14 10:22:03;;;;;;;60.80;37.30;;;;;;;8.20;82.44;97240.32;107492;1240;97746;-79
2024/03/14 10:24:34;;;;;;;63.80;37.30;;;;;;;8.32;83.03;97241.83;107534;1242;96568;-89
2024/03/14 10:27:03;;;;;;;56.20;33.90;;;;;;;8.47;83.18;97240.70;107345;1246;97804;-85
2024/03/14 10:29:32;;;;;;;58.30;35.20;;;;;;;8.55;82.73;97241.31;107376;1243;97191;-86
2024/03/14 10:32:03;;;;;;;55.50;35.00;;;;;;;8.62;82.53;97244.89;107370;1239;102254;-85
2024/03/14 10:34:29;;;;;;;52.70;34.00;;;;;;;8.66;81.82;97240.92;107489;1241;101551;-85
2024/03/14 10:36:58;;;;;;;57.70;34.80;;;;;;;8.67;81.19;97240.39;107355;1242;97896;-86
2024/03/14 10:39:28;;;;;;;58.60;35.10;;;;;;;8.69;80.92;97239.02;107388;1252;96668;-86
2024/03/14 10:41:54;;;;;;;59.50;34.50;;;;;;;8.73;80.20;97241.06;107392;1249;97109;-84
2024/03/14 10:44:22;;;;;;;50.60;32.50;;;;;;;8.70;79.19;97243.23;107415;1243;96699;-84
2024/03/14 10:46:50;;;;;;;52.10;32.90;;;;;;;8.64;79.23;97241.46;107418;1241;96648;-84
2024/03/14 10:49:19;;;;;;;49.50;31.50;;;;;;;8.67;79.67;97244.91;107339;1245;96572;-84
2024/03/14 10:51:49;;;;;;;54.00;32.00;;;;;;;8.72;79.65;97242.80;107456;1249;96824;-84
2024/03/14 10:54:21;;;;;;;53.60;32.50;;;;;;;8.81;79.62;97240.63;107417;1241;97007;-85
2024/03/14 10:56:50;;;;;;;51.50;30.00;;;;;;;8.89;79.05;97240.85;107388;1240;102127;-83
2024/03/14 10:59:17;;;;;;;51.30;31.60;;;;;;;8.89;78.44;97240.81;107411;1248;101215;-84
2024/03/14 11:01:50;;;;;;;53.80;32.70;;;;;;;8.89;78.43;97235.06;107349;1251;96788;-80
2024/03/14 11:04:17;;;;;;;53.40;31.10;;;;;;;8.91;78.70;97233.20;107496;1242;96807;-79
2024/03/14 11:06:49;;;;;;;48.50;29.60;;;;;;;8.99;78.61;97234.81;107498;1239;96492;-80
2024/03/14 11:09:27;;;;;;;50.70;29.50;;;;;;;9.08;78.61;97233.08;107517;1240;101193;-79
2024/03/14 11:11:57;;;;;;;48.00;30.00;;;;;;;9.14;78.14;97231.48;107493;1242;101680;-80
2024/03/14 11:14:37;;;;;;;49.80;30.30;;;;;;;9.08;77.83;97232.71;107526;1248;99735;-79
2024/03/14 11:17:04;;;;;;;47.20;29.90;;;;;;;9.01;77.71;97230.96;107495;1242;97721;-85
2024/03/14 11:19:31;;;;;;;50.70;31.10;;;;;;;8.95;77.91;97227.38;107351;1243;97493;-85
2024/03/14 11:21:59;;;;;;;51.70;30.70;;;;;;;8.96;78.33;97229.99;107367;1242;97058;-78
2024/03/14 11:24:31;;;;;;;48.20;30.70;;;;;;;9.00;78.04;97230.30;107566;1238;97868;-78
2024/03/14 11:27:03;;;;;;;45.20;29.20;;;;;;;9.05;77.60;97226.70;107460;1242;100073;-78
2024/03/14 11:29:33;;;;;;;46.10;30.70;;;;;;;9.12;77.36;97227.36;107303;1249;97702;-78
2024/03/14 11:32:16;;;;;;;42.80;27.00;;;;;;;9.16;77.17;97228.63;107515;1242;97019;-89
2024/03/14 11:34:43;;;;;;;42.30;26.40;;;;;;;9.21;76.78;97225.39;107368;1243;101128;-90
2024/03/14 11:37:09;;;;;;;42.30;28.50;;;;;;;9.24;76.56;97226.08;107358;1240;96805;-90
2024/03/14 11:39:36;;;;;;;44.10;29.80;;;;;;;9.24;76.54;97222.08;107375;1240;97004;-89
2024/03/14 11:42:06;;;;;;;46.10;29.40;;;;;;;9.25;76.40;97223.10;107342;1242;96564;-87
2024/03/14 11:44:32;;;;;;;44.50;28.60;;;;;;;9.25;76.41;97221.45;107414;1250;96508;-87
2024/03/14 11:47:00;;;;;;;45.90;28.60;;;;;;;9.20;75.91;97216.10;107401;1242;96583;-79
2024/03/14 11:49:29;;;;;;;42.30;27.50;;;;;;;9.09;75.83;97214.81;107367;1249;96986;-80
2024/03/14 11:51:55;;;;;;;45.60;29.10;;;;;;;9.00;76.12;97217.50;108954;1240;100404;-80
2024/03/14 11:54:22;;;;;;;45.20;28.10;;;;;;;8.93;76.39;97215.77;110930;1240;94384;-81
2024/03/14 11:56:48;;;;;;;45.00;27.40;;;;;;;8.89;76.25;97214.43;109536;1240;96857;-80
2024/03/14 11:59:15;;;;;;;44.50;26.80;;;;;;;8.86;75.91;97216.08;107884;1240;96635;-80
2024/03/14 12:01:41;;;;;;;46.70;25.40;;;;;;;8.80;75.79;97215.05;107902;1239;98725;-86
2024/03/14 12:04:10;;;;;;;41.10;26.00;;;;;;;8.81;75.80;97215.99;107748;1237;96588;-86
2024/03/14 12:06:37;;;;;;;45.40;26.80;;;;;;;8.77;75.38;97211.10;107926;1242;96487;-87
2024/03/14 12:09:04;;;;;;;42.60;26.80;;;;;;;8.73;75.25;97212.73;108070;1242;97531;-86
2024/03/14 12:11:31;;;;;;;49.40;27.00;;;;;;;8.70;75.72;97212.11;108029;1239;96567;-86
2024/03/14 12:13:58;;;;;;;45.70;27.60;;;;;;;8.63;75.73;97212.03;107924;1251;96633;-86
2024/03/14 12:16:25;;;;;;;43.20;26.90;;;;;;;8.60;75.58;97208.90;107906;1249;96673;-86
2024/03/14 12:18:52;;;;;;;40.80;26.10;;;;;;;8.61;75.56;97208.41;107763;1241;97128;-89
2024/03/14 12:21:19;;;;;;;45.90;27.10;;;;;;;8.60;75.53;97205.92;107761;1251;97895;-89
2024/03/14 12:23:54;;;;;;;41.10;27.00;;;;;;;8.60;75.72;97202.86;107433;1240;96588;-90
2024/03/14 12:26:22;;;;;;;43.50;26.70;;;;;;;8.61;75.62;97197.90;107474;1242;96590;-89
2024/03/14 12:28:50;;;;;;;44.60;27.30;;;;;;;8.59;75.54;97200.04;107332;1248;96576;-89
2024/03/14 12:31:18;;;;;;;43.20;26.30;;;;;;;8.56;75.49;97195.09;107448;1241;102109;-81
2024/03/14 12:33:44;;;;;;;40.30;25.30;;;;;;;8.58;75.62;97190.27;107517;1252;96655;-81
2024/03/14 12:36:16;;;;;;;39.40;24.80;;;;;;;8.68;75.68;97186.77;107508;1242;96917;-81
2024/03/14 12:38:50;;;;;;;37.60;24.70;;;;;;;8.81;75.34;97185.48;107535;1252;97580;-85
2024/03/14 12:41:18;;;;;;;36.40;24.30;;;;;;;8.85;74.77;97183.40;107528;1250;100091;-86
2024/03/14 12:43:47;;;;;;;42.10;25.30;;;;;;;8.87;75.27;97178.27;107530;1239;102123;-86
2024/03/14 12:46:15;;;;;;;39.30;28.00;;;;;;;8.89;75.55;97178.52;107561;1249;100244;-87
2024/03/14 12:48:42;;;;;;;43.90;26.40;;;;;;;8.93;75.46;97176.01;107480;1242;100066;-87
2024/03/14 12:51:10;;;;;;;43.50;27.90;;;;;;;8.96;74.77;97180.88;107522;1251;96636;-87
2024/03/14 12:53:36;;;;;;;43.40;28.10;;;;;;;8.97;74.75;97181.01;107573;1248;97804;-87
2024/03/14 12:56:04;;;;;;;38.50;25.90;;;;;;;9.03;74.77;97179.77;107564;1252;97518;-87
2024/03/14 12:58:32;;;;;;;39.20;25.00;;;;;;;9.09;74.67;97177.94;107385;1241;97080;-81
2024/03/14 13:00:59;;;;;;;44.30;26.50;;;;;;;9.15;74.63;97179.77;107401;1252;97597;-81
2024/03/14 13:03:26;;;;;;;41.70;25.40;;;;;;;9.20;74.43;97179.80;107621;1242;97500;-81
2024/03/14 13:05:55;;;;;;;42.10;25.70;;;;;;;9.23;74.32;97174.66;107562;1252;96658;-81
2024/03/14 13:08:24;;;;;;;43.50;25.20;;;;;;;9.26;73.90;97176.99;107554;1241;102088;-81
2024/03/14 13:11:24;;;;;;;42.90;26.20;;;;;;;9.26;73.76;97176.20;107540;1240;101208;-81
2024/03/14 13:13:50;;;;;;;42.00;25.60;;;;;;;9.28;73.58;97175.05;107158;1252;98802;-81
2024/03/14 13:16:19;;;;;;;43.70;26.00;;;;;;;9.30;73.30;97177.52;107499;1242;96657;-85
2024/03/14 13:18:52;;;;;;;43.30;26.70;;;;;;;9.28;73.10;97172.89;107585;1245;96987;-80
2024/03/14 13:21:24;;;;;;;40.40;24.80;;;;;;;9.29;73.01;97173.89;107582;1248;102367;-80
2024/03/14 13:23:51;;;;;;;41.00;25.40;;;;;;;9.28;72.88;97176.33;107548;1243;101286;-80
2024/03/14 13:26:23;;;;;;;44.30;26.50;;;;;;;9.27;72.77;97174.46;107504;1241;97489;-80
2024/03/14 13:28:51;;;;;;;39.50;26.20;;;;;;;9.25;72.92;97174.80;107505;1249;96665;-80
2024/03/14 13:31:20;;;;;;;40.00;26.40;;;;;;;9.20;73.31;97178.52;107603;1246;97072;-81
2024/03/14 13:33:47;;;;;;;41.10;25.60;;;;;;;9.16;72.84;97177.58;107505;1241;101992;-81
2024/03/14 13:36:14;;;;;;;42.30;25.30;;;;;;;9.13;72.53;97178.03;107547;1251;96642;-81
2024/03/14 13:38:40;;;;;;;40.60;25.20;;;;;;;9.07;72.50;97178.32;107494;1242;96639;-81
2024/03/14 13:41:07;;;;;;;41.00;26.10;;;;;;;9.05;72.86;97182.77;107664;1252;97948;-81
2024/03/14 13:43:33;;;;;;;36.90;23.00;;;;;;;9.06;72.80;97178.86;107562;1241;102183;-81
2024/03/14 13:45:59;;;;;;;34.80;22.60;;;;;;;9.09;72.58;97181.09;107551;1252;96814;-88
2024/03/14 13:48:28;;;;;;;39.00;23.70;;;;;;;9.08;72.50;97177.16;107535;1242;96661;-86
2024/03/14 13:50:55;;;;;;;35.80;23.70;;;;;;;9.05;72.48;97178.41;107436;1243;96845;-87
2024/03/14 13:53:25;;;;;;;40.00;24.10;;;;;;;9.07;72.30;97177.98;107501;1252;97116;-86
2024/03/14 13:55:51;;;;;;;40.10;25.10;;;;;;;9.08;71.99;97179.22;107429;1246;101331;-81
2024/03/14 13:58:21;;;;;;;36.30;23.00;;;;;;;9.08;71.95;97178.85;107538;1251;96650;-81
2024/03/14 14:00:50;;;;;;;42.20;23.80;;;;;;;9.09;72.01;97180.56;107501;1238;99862;-81
2024/03/14 14:03:19;;;;;;;37.80;24.30;;;;;;;9.05;72.03;97178.82;107629;1251;97490;-81
2024/03/14 14:05:48;;;;;;;34.40;22.80;;;;;;;8.98;71.94;97179.27;107842;1252;96568;-81
2024/03/14 14:08:15;;;;;;;39.30;23.20;;;;;;;8.95;71.71;97179.88;107751;1241;100783;-81
2024/03/14 14:10:43;;;;;;;38.40;22.90;;;;;;;8.91;71.74;97177.91;107684;1242;97909;-81
2024/03/14 14:13:10;;;;;;;42.80;26.70;;;;;;;8.90;71.97;97177.91;107696;1242;99904;-81
2024/03/14 14:15:37;;;;;;;43.20;25.60;;;;;;;8.90;72.21;97176.99;107504;1250;97797;-80
2024/03/14 14:18:05;;;;;;;41.60;26.20;;;;;;;8.89;72.17;97178.08;107700;1249;96571;-80
2024/03/14 14:20:31;;;;;;;43.50;27.00;;;;;;;8.88;72.49;97178.15;107618;1240;97112;-80
2024/03/14 14:22:58;;;;;;;46.20;26.10;;;;;;;8.89;72.66;97176.86;107580;1241;98335;-80
2024/03/14 14:25:24;;;;;;;46.70;28.30;;;;;;;8.87;72.12;97172.22;107591;1249;97253;-81
2024/03/14 14:27:51;;;;;;;42.20;24.30;;;;;;;8.86;72.54;97167.33;107563;1252;97788;-81
2024/03/14 14:30:19;;;;;;;47.00;26.70;;;;;;;8.86;72.33;97171.02;107588;1241;96658;-80
2024/03/14 14:32:46;;;;;;;45.10;27.80;;;;;;;8.85;72.52;97165.72;107649;1252;97404;-91
2024/03/14 14:35:12;;;;;;;45.10;27.80;;;;;;;8.85;72.68;97171.52;107440;1241;97454;-90
2024/03/14 14:37:41;;;;;;;43.20;27.20;;;;;;;8.84;72.63;97169.89;107540;1245;96656;-90
2024/03/14 14:40:10;;;;;;;44.90;26.70;;;;;;;8.83;72.81;97167.41;107453;1242;158863;-91
2024/03/14 14:42:37;;;;;;;45.80;26.50;;;;;;;8.83;73.28;97165.80;107585;1252;102115;-90
2024/03/14 14:45:05;;;;;;;47.90;28.00;;;;;;;8.85;73.49;97170.19;107591;1240;97493;-90
2024/03/14 14:47:36;;;;;;;49.30;29.40;;;;;;;8.83;73.40;97170.56;107607;1252;99715;-91
2024/03/14 14:50:04;;;;;;;46.90;28.20;;;;;;;8.78;73.25;97168.91;107509;1241;96523;-90
2024/03/14 14:52:36;;;;;;;45.70;27.20;;;;;;;8.74;73.41;97169.23;107618;1250;97092;-90
2024/03/14 14:55:11;;;;;;;44.30;28.10;;;;;;;8.72;73.51;97172.86;107578;1252;101163;-90
2024/03/14 14:57:42;;;;;;;47.70;28.50;;;;;;;8.72;73.76;97172.12;107623;1240;101137;-90
2024/03/14 15:00:11;;;;;;;48.70;28.50;;;;;;;8.70;73.74;97171.34;107578;1241;100038;-90
2024/03/14 15:02:38;;;;;;;49.90;28.80;;;;;;;8.67;73.80;97173.29;107549;1240;96591;-81
2024/03/14 15:05:09;;;;;;;52.40;29.70;;;;;;;8.64;73.75;97175.42;107643;1242;96636;-81
2024/03/14 15:07:36;;;;;;;50.90;29.70;;;;;;;8.62;73.91;97173.23;107518;1252;101103;-83
2024/03/14 15:10:07;;;;;;;57.50;31.60;;;;;;;8.58;73.87;97171.73;107623;1246;97804;-84
2024/03/14 15:12:34;;;;;;;56.70;32.80;;;;;;;8.57;73.86;97172.27;107662;1252;98434;-85
2024/03/14 15:15:00;;;;;;;55.00;33.20;;;;;;;8.56;73.91;97168.32;107506;1252;96665;-85
2024/03/14 15:17:26;;;;;;;54.70;33.30;;;;;;;8.55;74.19;97165.78;107432;1252;97893;-84
2024/03/14 15:19:53;;;;;;;57.30;33.70;;;;;;;8.54;74.24;97167.10;107447;1237;96548;-84
2024/03/14 15:22:20;;;;;;;55.70;33.50;;;;;;;8.53;74.34;97167.42;107487;1252;99895;-85
2024/03/14 15:24:46;;;;;;;62.10;33.60;;;;;;;8.54;74.41;97168.26;107451;1252;97155;-85
2024/03/14 15:27:13;;;;;;;59.60;32.80;;;;;;;8.54;74.48;97164.45;107379;1251;97085;-85
2024/03/14 15:29:39;;;;;;;49.90;31.00;;;;;;;8.53;74.57;97165.45;107562;1241;96651;-84
2024/03/14 15:32:06;;;;;;;57.10;31.40;;;;;;;8.52;74.70;97163.79;107403;1240;99992;-89
2024/03/14 15:34:33;;;;;;;53.70;31.30;;;;;;;8.51;74.87;97162.08;107446;1250;97255;-90
2024/03/14 15:37:00;;;;;;;56.40;32.70;;;;;;;8.50;74.96;97156.27;107622;1241;97833;-90
2024/03/14 15:39:28;;;;;;;53.60;31.20;;;;;;;8.49;75.04;97157.77;107493;1241;97212;-90
2024/03/14 15:41:55;;;;;;;53.30;31.20;;;;;;;8.48;74.99;97157.80;107709;1240;97834;-89
2024/03/14 15:44:22;;;;;;;59.00;34.30;;;;;;;8.47;75.07;97157.96;107611;1240;97096;-90
2024/03/14 15:46:49;;;;;;;55.80;33.70;;;;;;;8.46;75.08;97156.27;107521;1248;96590;-89
2024/03/14 15:49:16;;;;;;;54.60;32.20;;;;;;;8.45;75.13;97160.63;107629;1251;97503;-90
2024/03/14 15:51:46;;;;;;;60.00;35.50;;;;;;;8.43;75.28;97164.95;107622;1250;96620;-87
2024/03/14 15:54:13;;;;;;;60.00;36.90;;;;;;;8.41;75.30;97163.23;107663;1241;97198;-87
2024/03/14 15:56:39;;;;;;;76.30;40.80;;;;;;;8.38;75.40;97160.35;107636;1242;97632;-86
2024/03/14 15:59:05;;;;;;;76.50;44.00;;;;;;;8.33;75.42;97159.88;107598;1241;97272;-86
2024/03/14 16:01:34;;;;;;;115.60;64.50;;;;;;;8.32;75.44;97159.05;107749;1241;97481;-90
2024/03/14 16:04:06;;;;;;;119.70;69.90;;;;;;;8.30;75.51;97159.60;107636;1238;101312;-90
2024/03/14 16:06:36;;;;;;;102.40;59.90;;;;;;;8.28;75.58;97161.38;107649;1241;99894;-90
2024/03/14 16:09:03;;;;;;;89.70;54.40;;;;;;;8.25;75.74;97159.54;107613;1240;96570;-90
2024/03/14 16:11:30;;;;;;;86.00;48.30;;;;;;;8.22;75.75;97159.73;107536;1251;96602;-89
2024/03/14 16:13:57;;;;;;;79.50;46.20;;;;;;;8.19;75.80;97161.23;107553;1250;97113;-88
2024/03/14 16:16:25;;;;;;;77.00;43.80;;;;;;;8.16;75.96;97161.42;107466;1241;97826;-80
2024/03/14 16:18:51;;;;;;;67.20;37.70;;;;;;;8.12;75.91;97161.61;107603;1244;96642;-80
2024/03/14 16:21:18;;;;;;;61.80;34.80;;;;;;;8.08;75.90;97158.70;107653;1251;97490;-80
2024/03/14 16:23:46;;;;;;;61.10;35.70;;;;;;;8.06;76.02;97157.55;107705;1250;96647;-80
2024/03/14 16:26:18;;;;;;;60.90;36.50;;;;;;;8.05;76.17;97161.17;107653;1247;96572;-80
2024/03/14 16:28:46;;;;;;;;;;;;;;;8.01;76.34;97156.41;107745;1240;101424;-80
2024/03/14 16:31:16;;;;;;;80.90;43.30;;;;;;;7.97;76.37;97157.88;107578;1252;99886;-80
2024/03/14 16:33:47;;;;;;;75.20;43.80;;;;;;;7.94;76.45;97160.02;107650;1241;97810;-81
2024/03/14 16:36:19;;;;;;;73.30;42.60;;;;;;;7.92;76.57;97160.34;107659;1250;97106;-80
2024/03/14 16:38:45;;;;;;;72.00;43.10;;;;;;;7.89;76.71;97162.27;107646;1250;102004;-80
2024/03/14 16:41:16;;;;;;;71.90;40.40;;;;;;;7.87;76.74;97163.87;107661;1238;97046;-80
2024/03/14 16:43:43;;;;;;;72.30;40.10;;;;;;;7.84;76.90;97164.41;107648;1245;98856;-80
2024/03/14 16:46:10;;;;;;;82.80;42.30;;;;;;;7.82;76.92;97161.17;107666;1240;97390;-81
2024/03/14 16:48:37;;;;;;;84.30;45.30;;;;;;;7.79;77.08;97161.81;107680;1237;96795;-80
2024/03/14 16:51:03;;;;;;;107.50;51.30;;;;;;;7.76;77.23;97161.84;107488;1250;97679;-89
2024/03/14 16:53:30;;;;;;;111.90;52.70;;;;;;;7.73;77.26;97162.44;107655;1250;96646;-90
2024/03/14 16:55:57;;;;;;;106.20;50.70;;;;;;;7.70;77.31;97164.17;107685;1250;97764;-90
2024/03/14 16:58:28;;;;;;;97.40;48.40;;;;;;;7.67;77.58;97160.96;107625;1251;96585;-90
2024/03/14 17:00:56;;;;;;;104.50;48.50;;;;;;;7.63;77.73;97165.20;107700;1245;102106;-80
2024/03/14 17:03:23;;;;;;;108.40;51.80;;;;;;;7.60;77.71;97168.05;107761;1244;96635;-80
2024/03/14 17:05:51;;;;;;;92.60;46.70;;;;;;;7.55;77.86;97167.02;107686;1241;97011;-80
2024/03/14 17:08:19;;;;;;;95.60;49.50;;;;;;;7.52;77.99;97166.24;107713;1249;97397;-90
2024/03/14 17:10:46;;;;;;;99.00;51.10;;;;;;;7.49;78.19;97168.02;107822;1241;97026;-89
2024/03/14 17:13:12;;;;;;;138.40;65.60;;;;;;;7.47;78.29;97165.70;107685;1244;97279;-90
2024/03/14 17:15:40;;;;;;;171.60;83.80;;;;;;;7.44;78.27;97165.48;107546;1241;96684;-90
2024/03/14 17:18:07;;;;;;;171.80;86.10;;;;;;;7.42;78.46;97168.92;107473;1250;97132;-90
2024/03/14 17:20:35;;;;;;;164.40;78.60;;;;;;;7.42;78.44;97170.66;107588;1252;96600;-90